Дата Время Давление Темп. Влажн. Скор.ветра Напр.ветра Макс.ветер Осадки/час Осадки
11.04.21 19:00 755.6 17.9 28.7 0.6 170 2.3 0 0
11.04.21 18:00 755.1 20.5 24.5 0.8 183 3.6 0 0
11.04.21 17:00 754.8 19.5 25.1 1.2 194 4.3 0 0
11.04.21 16:00 754.7 19.6 25 1.4 191 5.3 0 0
11.04.21 15:00 754.4 19.8 25.4 1.6 186 5.1 0 0
11.04.21 14:00 754.6 18.9 25.6 1.5 178 5.1 0 0
11.04.21 13:00 754.2 17.9 26.4 1.8 204 5.6 0 0
11.04.21 12:00 754.3 16.8 29.1 1.8 218 4.5 0 0
11.04.21 11:00 754.3 15.2 31.6 2.1 184 4.5 0 0
11.04.21 10:00 754 12.7 36.7 1.7 200 5 0 0
11.04.21 09:00 753.8 9 45.7 2.7 194 5.5 0 0
11.04.21 08:00 753.7 6.5 49.3 2.6 198 4.2 0 0
11.04.21 07:00 753.5 4.1 55.7 2.3 199 4.4 0 0
11.04.21 06:00 753.3 3.8 56 2.2 194 3.9 0 0
11.04.21 05:00 753.1 3.9 54.9 1.7 194 4.6 0 0
11.04.21 04:00 752.9 4.2 53.4 2.2 196 3.9 0 0
11.04.21 03:00 752.5 4.3 52.5 2.1 195 3.6 0 0
11.04.21 02:00 752.3 4.5 51.8 2 183 3.7 0 0
11.04.21 01:00 752 5 49.4 2.4 196 4.8 0 0
11.04.21 00:00 751.9 5.5 46.7 2.1 198 3.8 0 0
10.04.21 23:00 751.7 6 44.5 1.9 183 3.2 0 0
10.04.21 22:00 751.6 7 42.2 1.6 183 2.9 0 0
10.04.21 21:00 751.3 8.3 38.2 1.6 190 2.9 0 0
10.04.21 20:00 751 9.2 36.2 1.5 187 3.6 0 0